Аэропорт
Иссык-Куль (UCFL)

 UCFL
ЗЦ Центральная Азия
Бишкек (UCFM)
Бишкек (UCFM)
 42.58830, 76.71330  / 5425 ft

 UCFL 291900Z 23005MPS 9999 SCT030CB BKN100 16/07 Q1016 R07/CLRD//
 TAF UCFL 291339Z 2915/2924 34003G08MPS 9999 SCT030CB BKN100 TEMPO 2915/2921 30007G12MPS PROB40 TEMPO 2915/2921 TS
показать схемы



2020 © VATRUS division (Privacy Policy)